sensor_id;sensor_type;location;lat;lon;timestamp;P1;durP1;ratioP1;P2;durP2;ratioP2
53503;SDS011;39387;50.998;22.340;2023-04-02T00:01:34;5.47;;;3.33;;
53503;SDS011;39387;50.998;22.340;2023-04-02T00:04:04;5.13;;;3.40;;
53503;SDS011;39387;50.998;22.340;2023-04-02T00:06:34;6.93;;;3.97;;
53503;SDS011;39387;50.998;22.340;2023-04-02T00:12:00;6.72;;;3.17;;
53503;SDS011;39387;50.998;22.340;2023-04-02T00:14:40;4.75;;;3.20;;
53503;SDS011;39387;50.998;22.340;2023-04-02T00:17:12;4.78;;;2.78;;
53503;SDS011;39387;50.998;22.340;2023-04-02T00:19:41;4.82;;;2.95;;
53503;SDS011;39387;50.998;22.340;2023-04-02T00:22:12;3.95;;;2.50;;
53503;SDS011;39387;50.998;22.340;2023-04-02T00:24:44;3.53;;;2.30;;
53503;SDS011;39387;50.998;22.340;2023-04-02T00:27:13;2.63;;;2.13;;
53503;SDS011;39387;50.998;22.340;2023-04-02T00:29:44;3.42;;;2.38;;
53503;SDS011;39387;50.998;22.340;2023-04-02T00:32:14;3.55;;;2.30;;
53503;SDS011;39387;50.998;22.340;2023-04-02T00:34:44;4.18;;;2.05;;
53503;SDS011;39387;50.998;22.340;2023-04-02T00:37:14;3.58;;;2.05;;
53503;SDS011;39387;50.998;22.340;2023-04-02T00:39:44;2.70;;;1.85;;
53503;SDS011;39387;50.998;22.340;2023-04-02T00:42:12;3.03;;;2.30;;
53503;SDS011;39387;50.998;22.340;2023-04-02T00:44:43;3.07;;;2.17;;
53503;SDS011;39387;50.998;22.340;2023-04-02T00:47:13;3.42;;;1.90;;
53503;SDS011;39387;50.998;22.340;2023-04-02T00:49:45;3.88;;;2.45;;
53503;SDS011;39387;50.998;22.340;2023-04-02T00:52:13;4.13;;;2.38;;
53503;SDS011;39387;50.998;22.340;2023-04-02T00:54:44;3.75;;;2.53;;
53503;SDS011;39387;50.998;22.340;2023-04-02T00:57:15;4.50;;;2.40;;
53503;SDS011;39387;50.998;22.340;2023-04-02T00:59:50;3.25;;;2.28;;
53503;SDS011;39387;50.998;22.340;2023-04-02T01:02:24;3.65;;;2.42;;
53503;SDS011;39387;50.998;22.340;2023-04-02T01:04:54;3.33;;;2.53;;
53503;SDS011;39387;50.998;22.340;2023-04-02T01:07:28;3.03;;;2.10;;
53503;SDS011;39387;50.998;22.340;2023-04-02T01:10:20;4.00;;;2.38;;
53503;SDS011;39387;50.998;22.340;2023-04-02T01:13:01;4.30;;;2.28;;
53503;SDS011;39387;50.998;22.340;2023-04-02T01:15:35;3.60;;;2.25;;
53503;SDS011;39387;50.998;22.340;2023-04-02T01:18:08;3.88;;;2.67;;
53503;SDS011;39387;50.998;22.340;2023-04-02T01:23:46;3.90;;;2.40;;
53503;SDS011;39387;50.998;22.340;2023-04-02T01:26:25;3.90;;;2.28;;
53503;SDS011;39387;50.998;22.340;2023-04-02T01:29:02;4.70;;;2.70;;
53503;SDS011;39387;50.998;22.340;2023-04-02T01:31:32;4.13;;;2.80;;
53503;SDS011;39387;50.998;22.340;2023-04-02T01:34:01;4.85;;;3.40;;
53503;SDS011;39387;50.998;22.340;2023-04-02T01:36:33;3.95;;;2.97;;
53503;SDS011;39387;50.998;22.340;2023-04-02T01:39:09;4.95;;;3.50;;
53503;SDS011;39387;50.998;22.340;2023-04-02T01:41:42;4.47;;;2.85;;
53503;SDS011;39387;50.998;22.340;2023-04-02T01:44:16;5.40;;;3.45;;
53503;SDS011;39387;50.998;22.340;2023-04-02T01:46:47;4.88;;;2.90;;
53503;SDS011;39387;50.998;22.340;2023-04-02T01:49:17;6.03;;;3.20;;
53503;SDS011;39387;50.998;22.340;2023-04-02T01:54:18;5.55;;;3.08;;
53503;SDS011;39387;50.998;22.340;2023-04-02T01:56:46;5.85;;;3.33;;
53503;SDS011;39387;50.998;22.340;2023-04-02T01:59:17;6.05;;;3.70;;
53503;SDS011;39387;50.998;22.340;2023-04-02T02:01:47;6.47;;;3.80;;
53503;SDS011;39387;50.998;22.340;2023-04-02T02:04:16;5.05;;;3.90;;
53503;SDS011;39387;50.998;22.340;2023-04-02T02:06:44;6.10;;;4.03;;
53503;SDS011;39387;50.998;22.340;2023-04-02T02:09:14;7.72;;;4.40;;
53503;SDS011;39387;50.998;22.340;2023-04-02T02:11:44;6.43;;;4.22;;
53503;SDS011;39387;50.998;22.340;2023-04-02T02:14:13;6.32;;;3.92;;
53503;SDS011;39387;50.998;22.340;2023-04-02T02:16:44;6.13;;;4.28;;
53503;SDS011;39387;50.998;22.340;2023-04-02T02:19:17;7.22;;;3.92;;
53503;SDS011;39387;50.998;22.340;2023-04-02T02:21:48;5.88;;;3.83;;
53503;SDS011;39387;50.998;22.340;2023-04-02T02:24:19;6.05;;;3.67;;
53503;SDS011;39387;50.998;22.340;2023-04-02T02:26:49;7.43;;;3.88;;
53503;SDS011;39387;50.998;22.340;2023-04-02T02:29:20;5.97;;;3.47;;
53503;SDS011;39387;50.998;22.340;2023-04-02T02:31:51;7.05;;;3.55;;
53503;SDS011;39387;50.998;22.340;2023-04-02T02:34:20;7.43;;;4.57;;
53503;SDS011;39387;50.998;22.340;2023-04-02T02:36:50;6.10;;;3.90;;
53503;SDS011;39387;50.998;22.340;2023-04-02T02:39:21;7.38;;;4.20;;
53503;SDS011;39387;50.998;22.340;2023-04-02T02:41:50;6.43;;;4.18;;
53503;SDS011;39387;50.998;22.340;2023-04-02T02:44:19;6.53;;;4.28;;
53503;SDS011;39387;50.998;22.340;2023-04-02T02:46:49;5.78;;;3.60;;
53503;SDS011;39387;50.998;22.340;2023-04-02T02:49:23;5.05;;;3.45;;
53503;SDS011;39387;50.998;22.340;2023-04-02T02:51:56;4.35;;;2.92;;
53503;SDS011;39387;50.998;22.340;2023-04-02T02:54:25;4.80;;;3.13;;
53503;SDS011;39387;50.998;22.340;2023-04-02T02:56:54;4.70;;;2.85;;
53503;SDS011;39387;50.998;22.340;2023-04-02T02:59:24;4.45;;;3.25;;
53503;SDS011;39387;50.998;22.340;2023-04-02T03:01:52;4.25;;;3.08;;
53503;SDS011;39387;50.998;22.340;2023-04-02T03:04:20;5.57;;;3.08;;
53503;SDS011;39387;50.998;22.340;2023-04-02T03:06:49;4.88;;;3.00;;
53503;SDS011;39387;50.998;22.340;2023-04-02T03:09:21;4.78;;;3.17;;
53503;SDS011;39387;50.998;22.340;2023-04-02T03:11:53;7.35;;;3.33;;
53503;SDS011;39387;50.998;22.340;2023-04-02T03:14:27;4.43;;;3.10;;
53503;SDS011;39387;50.998;22.340;2023-04-02T03:19:27;5.68;;;3.35;;
53503;SDS011;39387;50.998;22.340;2023-04-02T03:22:00;5.65;;;3.20;;
53503;SDS011;39387;50.998;22.340;2023-04-02T03:24:34;6.05;;;3.13;;
53503;SDS011;39387;50.998;22.340;2023-04-02T03:27:04;5.83;;;3.37;;
53503;SDS011;39387;50.998;22.340;2023-04-02T03:29:37;6.07;;;3.15;;
53503;SDS011;39387;50.998;22.340;2023-04-02T03:32:10;7.45;;;3.88;;
53503;SDS011;39387;50.998;22.340;2023-04-02T03:34:40;6.28;;;3.47;;
53503;SDS011;39387;50.998;22.340;2023-04-02T03:37:10;7.28;;;4.10;;
53503;SDS011;39387;50.998;22.340;2023-04-02T03:39:42;8.65;;;4.28;;
53503;SDS011;39387;50.998;22.340;2023-04-02T03:42:12;7.20;;;4.63;;
53503;SDS011;39387;50.998;22.340;2023-04-02T03:44:44;8.38;;;4.78;;
53503;SDS011;39387;50.998;22.340;2023-04-02T03:47:15;6.75;;;4.10;;
53503;SDS011;39387;50.998;22.340;2023-04-02T03:49:47;5.95;;;3.65;;
53503;SDS011;39387;50.998;22.340;2023-04-02T03:52:16;7.03;;;4.10;;
53503;SDS011;39387;50.998;22.340;2023-04-02T03:54:46;6.97;;;4.90;;
53503;SDS011;39387;50.998;22.340;2023-04-02T03:57:17;6.50;;;3.80;;
53503;SDS011;39387;50.998;22.340;2023-04-02T03:59:53;6.75;;;4.00;;
53503;SDS011;39387;50.998;22.340;2023-04-02T04:02:31;5.53;;;4.00;;
53503;SDS011;39387;50.998;22.340;2023-04-02T04:05:01;4.95;;;3.40;;
53503;SDS011;39387;50.998;22.340;2023-04-02T04:07:30;5.72;;;3.50;;
53503;SDS011;39387;50.998;22.340;2023-04-02T04:09:59;4.97;;;3.15;;
53503;SDS011;39387;50.998;22.340;2023-04-02T04:12:29;5.28;;;3.17;;
53503;SDS011;39387;50.998;22.340;2023-04-02T04:14:59;4.93;;;3.58;;
53503;SDS011;39387;50.998;22.340;2023-04-02T04:17:32;4.30;;;3.03;;
53503;SDS011;39387;50.998;22.340;2023-04-02T04:20:08;5.55;;;2.90;;
53503;SDS011;39387;50.998;22.340;2023-04-02T04:22:41;6.47;;;3.63;;
53503;SDS011;39387;50.998;22.340;2023-04-02T04:25:16;5.28;;;3.17;;
53503;SDS011;39387;50.998;22.340;2023-04-02T04:27:50;3.38;;;2.65;;
53503;SDS011;39387;50.998;22.340;2023-04-02T04:30:31;3.78;;;2.08;;
53503;SDS011;39387;50.998;22.340;2023-04-02T04:33:10;3.58;;;2.67;;
53503;SDS011;39387;50.998;22.340;2023-04-02T04:35:43;3.90;;;2.60;;
53503;SDS011;39387;50.998;22.340;2023-04-02T04:38:13;3.65;;;2.17;;
53503;SDS011;39387;50.998;22.340;2023-04-02T04:40:44;3.67;;;2.33;;
53503;SDS011;39387;50.998;22.340;2023-04-02T04:43:16;2.83;;;2.03;;
53503;SDS011;39387;50.998;22.340;2023-04-02T04:45:46;3.25;;;2.00;;
53503;SDS011;39387;50.998;22.340;2023-04-02T04:48:18;3.08;;;1.80;;
53503;SDS011;39387;50.998;22.340;2023-04-02T04:50:48;2.92;;;1.98;;
53503;SDS011;39387;50.998;22.340;2023-04-02T04:53:19;4.35;;;2.08;;
53503;SDS011;39387;50.998;22.340;2023-04-02T04:55:48;3.08;;;2.00;;
53503;SDS011;39387;50.998;22.340;2023-04-02T04:58:17;2.83;;;2.03;;
53503;SDS011;39387;50.998;22.340;2023-04-02T05:00:51;3.50;;;2.25;;
53503;SDS011;39387;50.998;22.340;2023-04-02T05:03:27;3.45;;;2.15;;
53503;SDS011;39387;50.998;22.340;2023-04-02T05:05:59;2.83;;;1.88;;
53503;SDS011;39387;50.998;22.340;2023-04-02T05:08:29;3.22;;;2.00;;
53503;SDS011;39387;50.998;22.340;2023-04-02T05:11:00;4.10;;;2.53;;
53503;SDS011;39387;50.998;22.340;2023-04-02T05:16:00;3.80;;;2.40;;
53503;SDS011;39387;50.998;22.340;2023-04-02T05:18:35;3.50;;;2.95;;
53503;SDS011;39387;50.998;22.340;2023-04-02T05:21:05;3.63;;;2.67;;
53503;SDS011;39387;50.998;22.340;2023-04-02T05:23:42;4.10;;;2.70;;
53503;SDS011;39387;50.998;22.340;2023-04-02T05:26:12;4.97;;;2.63;;
53503;SDS011;39387;50.998;22.340;2023-04-02T05:28:43;4.55;;;3.05;;
53503;SDS011;39387;50.998;22.340;2023-04-02T05:31:14;3.65;;;2.67;;
53503;SDS011;39387;50.998;22.340;2023-04-02T05:33:46;4.70;;;3.25;;
53503;SDS011;39387;50.998;22.340;2023-04-02T05:36:18;6.60;;;3.20;;
53503;SDS011;39387;50.998;22.340;2023-04-02T05:38:47;4.35;;;2.67;;
53503;SDS011;39387;50.998;22.340;2023-04-02T05:41:19;5.18;;;3.15;;
53503;SDS011;39387;50.998;22.340;2023-04-02T05:43:49;4.78;;;2.90;;
53503;SDS011;39387;50.998;22.340;2023-04-02T05:46:24;4.47;;;2.83;;
53503;SDS011;39387;50.998;22.340;2023-04-02T05:48:55;7.45;;;3.85;;
53503;SDS011;39387;50.998;22.340;2023-04-02T05:51:25;5.90;;;2.90;;
53503;SDS011;39387;50.998;22.340;2023-04-02T05:53:55;4.90;;;3.42;;
53503;SDS011;39387;50.998;22.340;2023-04-02T05:56:25;4.60;;;3.13;;
53503;SDS011;39387;50.998;22.340;2023-04-02T06:01:28;4.97;;;3.00;;
53503;SDS011;39387;50.998;22.340;2023-04-02T06:04:01;4.40;;;3.05;;
53503;SDS011;39387;50.998;22.340;2023-04-02T06:06:44;4.40;;;3.05;;
53503;SDS011;39387;50.998;22.340;2023-04-02T06:09:14;4.35;;;3.10;;
53503;SDS011;39387;50.998;22.340;2023-04-02T06:11:44;4.57;;;3.30;;
53503;SDS011;39387;50.998;22.340;2023-04-02T06:14:14;5.88;;;3.78;;
53503;SDS011;39387;50.998;22.340;2023-04-02T06:16:42;7.00;;;3.85;;
53503;SDS011;39387;50.998;22.340;2023-04-02T06:19:14;5.00;;;3.75;;
53503;SDS011;39387;50.998;22.340;2023-04-02T06:21:46;5.75;;;3.90;;
53503;SDS011;39387;50.998;22.340;2023-04-02T06:24:15;6.00;;;3.90;;
53503;SDS011;39387;50.998;22.340;2023-04-02T06:26:45;6.63;;;4.18;;
53503;SDS011;39387;50.998;22.340;2023-04-02T06:31:44;5.30;;;3.70;;
53503;SDS011;39387;50.998;22.340;2023-04-02T06:34:15;5.43;;;3.90;;
53503;SDS011;39387;50.998;22.340;2023-04-02T06:36:44;6.13;;;3.88;;
53503;SDS011;39387;50.998;22.340;2023-04-02T06:39:14;5.53;;;3.45;;
53503;SDS011;39387;50.998;22.340;2023-04-02T06:41:44;6.65;;;4.72;;
53503;SDS011;39387;50.998;22.340;2023-04-02T06:44:13;7.97;;;4.03;;
53503;SDS011;39387;50.998;22.340;2023-04-02T06:46:44;7.35;;;4.07;;
53503;SDS011;39387;50.998;22.340;2023-04-02T06:51:43;7.05;;;4.75;;
53503;SDS011;39387;50.998;22.340;2023-04-02T06:54:12;11.25;;;6.13;;
53503;SDS011;39387;50.998;22.340;2023-04-02T06:56:42;8.98;;;5.45;;
53503;SDS011;39387;50.998;22.340;2023-04-02T06:59:11;8.30;;;5.45;;
53503;SDS011;39387;50.998;22.340;2023-04-02T07:01:40;8.38;;;5.40;;
53503;SDS011;39387;50.998;22.340;2023-04-02T07:04:11;10.55;;;5.53;;
53503;SDS011;39387;50.998;22.340;2023-04-02T07:06:40;7.32;;;4.47;;
53503;SDS011;39387;50.998;22.340;2023-04-02T07:09:07;8.45;;;5.20;;
53503;SDS011;39387;50.998;22.340;2023-04-02T07:11:35;7.07;;;4.47;;
53503;SDS011;39387;50.998;22.340;2023-04-02T07:14:02;5.68;;;4.28;;
53503;SDS011;39387;50.998;22.340;2023-04-02T07:16:31;7.20;;;4.35;;
53503;SDS011;39387;50.998;22.340;2023-04-02T07:19:01;6.28;;;4.55;;
53503;SDS011;39387;50.998;22.340;2023-04-02T07:21:29;6.03;;;3.90;;
53503;SDS011;39387;50.998;22.340;2023-04-02T07:23:58;5.65;;;4.15;;
53503;SDS011;39387;50.998;22.340;2023-04-02T07:26:26;6.65;;;4.15;;
53503;SDS011;39387;50.998;22.340;2023-04-02T07:28:53;5.20;;;3.70;;
53503;SDS011;39387;50.998;22.340;2023-04-02T07:31:22;6.05;;;3.30;;
53503;SDS011;39387;50.998;22.340;2023-04-02T07:33:52;5.68;;;3.85;;
53503;SDS011;39387;50.998;22.340;2023-04-02T07:36:23;5.85;;;4.10;;
53503;SDS011;39387;50.998;22.340;2023-04-02T07:38:50;4.78;;;3.53;;
53503;SDS011;39387;50.998;22.340;2023-04-02T07:41:19;4.72;;;3.40;;
53503;SDS011;39387;50.998;22.340;2023-04-02T07:43:47;4.50;;;2.95;;
53503;SDS011;39387;50.998;22.340;2023-04-02T07:46:15;4.60;;;3.00;;
53503;SDS011;39387;50.998;22.340;2023-04-02T07:48:45;4.00;;;3.10;;
53503;SDS011;39387;50.998;22.340;2023-04-02T07:51:14;3.67;;;3.05;;
53503;SDS011;39387;50.998;22.340;2023-04-02T07:53:42;4.88;;;2.90;;
53503;SDS011;39387;50.998;22.340;2023-04-02T07:56:12;4.95;;;3.60;;
53503;SDS011;39387;50.998;22.340;2023-04-02T07:58:42;4.47;;;3.05;;
53503;SDS011;39387;50.998;22.340;2023-04-02T08:01:17;6.00;;;3.85;;
53503;SDS011;39387;50.998;22.340;2023-04-02T08:03:46;6.28;;;3.78;;
53503;SDS011;39387;50.998;22.340;2023-04-02T08:06:14;4.43;;;3.28;;
53503;SDS011;39387;50.998;22.340;2023-04-02T08:08:41;5.60;;;4.03;;
53503;SDS011;39387;50.998;22.340;2023-04-02T08:11:09;5.57;;;3.78;;
53503;SDS011;39387;50.998;22.340;2023-04-02T08:13:37;5.97;;;4.05;;
53503;SDS011;39387;50.998;22.340;2023-04-02T08:16:06;4.75;;;3.55;;
53503;SDS011;39387;50.998;22.340;2023-04-02T08:18:34;4.45;;;3.42;;
53503;SDS011;39387;50.998;22.340;2023-04-02T08:21:04;5.85;;;4.15;;
53503;SDS011;39387;50.998;22.340;2023-04-02T08:23:32;4.45;;;3.30;;
53503;SDS011;39387;50.998;22.340;2023-04-02T08:26:00;6.93;;;3.70;;
53503;SDS011;39387;50.998;22.340;2023-04-02T08:28:28;4.75;;;3.40;;
53503;SDS011;39387;50.998;22.340;2023-04-02T08:30:55;5.30;;;3.78;;
53503;SDS011;39387;50.998;22.340;2023-04-02T08:33:24;6.65;;;4.50;;
53503;SDS011;39387;50.998;22.340;2023-04-02T08:35:52;5.20;;;4.00;;
53503;SDS011;39387;50.998;22.340;2023-04-02T08:38:20;6.63;;;3.42;;
53503;SDS011;39387;50.998;22.340;2023-04-02T08:40:48;6.35;;;4.18;;
53503;SDS011;39387;50.998;22.340;2023-04-02T08:46:32;6.68;;;4.28;;
53503;SDS011;39387;50.998;22.340;2023-04-02T08:49:02;4.90;;;3.73;;
53503;SDS011;39387;50.998;22.340;2023-04-02T08:51:36;5.32;;;3.40;;
53503;SDS011;39387;50.998;22.340;2023-04-02T08:54:05;5.85;;;3.90;;
53503;SDS011;39387;50.998;22.340;2023-04-02T08:56:39;4.78;;;3.90;;
53503;SDS011;39387;50.998;22.340;2023-04-02T08:59:13;5.55;;;3.22;;
53503;SDS011;39387;50.998;22.340;2023-04-02T09:01:48;8.13;;;3.80;;
53503;SDS011;39387;50.998;22.340;2023-04-02T09:06:48;4.05;;;2.95;;
53503;SDS011;39387;50.998;22.340;2023-04-02T09:09:16;5.93;;;3.70;;
53503;SDS011;39387;50.998;22.340;2023-04-02T09:11:46;4.38;;;3.10;;
53503;SDS011;39387;50.998;22.340;2023-04-02T09:14:19;3.85;;;2.90;;
53503;SDS011;39387;50.998;22.340;2023-04-02T09:16:48;6.35;;;3.30;;
53503;SDS011;39387;50.998;22.340;2023-04-02T09:19:20;4.03;;;3.08;;
53503;SDS011;39387;50.998;22.340;2023-04-02T09:21:55;4.97;;;3.45;;
53503;SDS011;39387;50.998;22.340;2023-04-02T09:24:26;5.03;;;3.10;;
53503;SDS011;39387;50.998;22.340;2023-04-02T09:26:54;4.60;;;3.35;;
53503;SDS011;39387;50.998;22.340;2023-04-02T09:29:34;3.90;;;3.00;;
53503;SDS011;39387;50.998;22.340;2023-04-02T09:32:09;4.10;;;2.88;;
53503;SDS011;39387;50.998;22.340;2023-04-02T09:34:49;5.05;;;3.00;;
53503;SDS011;39387;50.998;22.340;2023-04-02T09:37:18;3.72;;;2.67;;
53503;SDS011;39387;50.998;22.340;2023-04-02T09:39:49;4.80;;;3.28;;
53503;SDS011;39387;50.998;22.340;2023-04-02T09:42:30;4.65;;;3.10;;
53503;SDS011;39387;50.998;22.340;2023-04-02T09:45:11;4.40;;;3.08;;
53503;SDS011;39387;50.998;22.340;2023-04-02T09:47:40;4.07;;;2.85;;
53503;SDS011;39387;50.998;22.340;2023-04-02T09:50:22;4.25;;;3.00;;
53503;SDS011;39387;50.998;22.340;2023-04-02T09:52:52;5.00;;;2.58;;
53503;SDS011;39387;50.998;22.340;2023-04-02T09:55:21;4.13;;;2.90;;
53503;SDS011;39387;50.998;22.340;2023-04-02T09:58:05;4.72;;;3.05;;
53503;SDS011;39387;50.998;22.340;2023-04-02T10:00:36;4.75;;;2.90;;
53503;SDS011;39387;50.998;22.340;2023-04-02T10:03:05;5.80;;;4.07;;
53503;SDS011;39387;50.998;22.340;2023-04-02T10:05:44;5.35;;;3.50;;
53503;SDS011;39387;50.998;22.340;2023-04-02T10:08:15;5.47;;;3.90;;
53503;SDS011;39387;50.998;22.340;2023-04-02T10:10:45;6.75;;;4.28;;
53503;SDS011;39387;50.998;22.340;2023-04-02T10:13:20;7.75;;;4.70;;
53503;SDS011;39387;50.998;22.340;2023-04-02T10:15:52;6.35;;;3.97;;
53503;SDS011;39387;50.998;22.340;2023-04-02T10:18:23;6.15;;;4.30;;
53503;SDS011;39387;50.998;22.340;2023-04-02T10:21:00;5.13;;;3.80;;
53503;SDS011;39387;50.998;22.340;2023-04-02T10:23:30;5.70;;;4.50;;
53503;SDS011;39387;50.998;22.340;2023-04-02T10:26:00;6.22;;;4.22;;
53503;SDS011;39387;50.998;22.340;2023-04-02T10:28:40;6.68;;;4.43;;
53503;SDS011;39387;50.998;22.340;2023-04-02T10:31:14;3.50;;;3.13;;
53503;SDS011;39387;50.998;22.340;2023-04-02T10:33:50;3.05;;;2.30;;
53503;SDS011;39387;50.998;22.340;2023-04-02T10:36:24;3.58;;;2.50;;
53503;SDS011;39387;50.998;22.340;2023-04-02T10:38:57;3.70;;;2.75;;
53503;SDS011;39387;50.998;22.340;2023-04-02T10:41:30;4.00;;;3.33;;
53503;SDS011;39387;50.998;22.340;2023-04-02T10:44:14;4.07;;;2.80;;
53503;SDS011;39387;50.998;22.340;2023-04-02T10:46:51;3.42;;;2.50;;
53503;SDS011;39387;50.998;22.340;2023-04-02T10:49:28;3.60;;;2.53;;
53503;SDS011;39387;50.998;22.340;2023-04-02T10:52:00;4.50;;;3.20;;
53503;SDS011;39387;50.998;22.340;2023-04-02T10:54:38;3.13;;;2.47;;
53503;SDS011;39387;50.998;22.340;2023-04-02T10:57:11;4.20;;;2.50;;
53503;SDS011;39387;50.998;22.340;2023-04-02T10:59:54;3.75;;;2.60;;
53503;SDS011;39387;50.998;22.340;2023-04-02T11:02:26;3.92;;;3.28;;
53503;SDS011;39387;50.998;22.340;2023-04-02T11:04:58;3.78;;;2.90;;
53503;SDS011;39387;50.998;22.340;2023-04-02T11:07:30;4.55;;;2.80;;
53503;SDS011;39387;50.998;22.340;2023-04-02T11:10:10;3.95;;;3.05;;
53503;SDS011;39387;50.998;22.340;2023-04-02T11:12:40;5.35;;;3.53;;
53503;SDS011;39387;50.998;22.340;2023-04-02T11:15:12;4.65;;;3.22;;
53503;SDS011;39387;50.998;22.340;2023-04-02T11:17:41;5.55;;;3.70;;
53503;SDS011;39387;50.998;22.340;2023-04-02T11:23:10;5.72;;;3.40;;
53503;SDS011;39387;50.998;22.340;2023-04-02T11:25:38;5.03;;;3.30;;
53503;SDS011;39387;50.998;22.340;2023-04-02T11:30:52;4.95;;;3.60;;
53503;SDS011;39387;50.998;22.340;2023-04-02T11:33:24;5.18;;;3.60;;
53503;SDS011;39387;50.998;22.340;2023-04-02T11:39:07;5.93;;;3.35;;
53503;SDS011;39387;50.998;22.340;2023-04-02T11:44:28;8.88;;;5.15;;
53503;SDS011;39387;50.998;22.340;2023-04-02T11:47:15;8.45;;;5.00;;
53503;SDS011;39387;50.998;22.340;2023-04-02T11:49:59;8.10;;;4.88;;
53503;SDS011;39387;50.998;22.340;2023-04-02T11:52:33;9.60;;;5.22;;
53503;SDS011;39387;50.998;22.340;2023-04-02T11:55:25;8.43;;;4.78;;
53503;SDS011;39387;50.998;22.340;2023-04-02T11:58:05;7.60;;;4.88;;
53503;SDS011;39387;50.998;22.340;2023-04-02T12:04:14;9.93;;;5.65;;
53503;SDS011;39387;50.998;22.340;2023-04-02T12:06:52;9.32;;;5.28;;
53503;SDS011;39387;50.998;22.340;2023-04-02T12:09:25;11.05;;;6.20;;
53503;SDS011;39387;50.998;22.340;2023-04-02T12:11:55;9.95;;;5.95;;
53503;SDS011;39387;50.998;22.340;2023-04-02T12:14:29;12.00;;;6.10;;
53503;SDS011;39387;50.998;22.340;2023-04-02T12:17:15;15.00;;;6.47;;
53503;SDS011;39387;50.998;22.340;2023-04-02T12:19:46;7.53;;;4.53;;
53503;SDS011;39387;50.998;22.340;2023-04-02T12:22:17;10.23;;;5.82;;
53503;SDS011;39387;50.998;22.340;2023-04-02T12:27:17;6.78;;;4.25;;
53503;SDS011;39387;50.998;22.340;2023-04-02T12:29:48;5.43;;;4.18;;
53503;SDS011;39387;50.998;22.340;2023-04-02T12:32:22;7.72;;;5.28;;
53503;SDS011;39387;50.998;22.340;2023-04-02T12:34:52;6.57;;;4.65;;
53503;SDS011;39387;50.998;22.340;2023-04-02T12:37:21;8.60;;;5.45;;
53503;SDS011;39387;50.998;22.340;2023-04-02T12:39:52;7.95;;;5.20;;
53503;SDS011;39387;50.998;22.340;2023-04-02T12:42:26;6.68;;;4.95;;
53503;SDS011;39387;50.998;22.340;2023-04-02T12:44:55;7.43;;;4.90;;
53503;SDS011;39387;50.998;22.340;2023-04-02T12:47:22;6.18;;;4.57;;
53503;SDS011;39387;50.998;22.340;2023-04-02T12:49:50;7.38;;;4.72;;
53503;SDS011;39387;50.998;22.340;2023-04-02T12:52:18;7.05;;;4.28;;
53503;SDS011;39387;50.998;22.340;2023-04-02T12:54:47;7.88;;;5.07;;
53503;SDS011;39387;50.998;22.340;2023-04-02T12:57:19;8.52;;;5.05;;
53503;SDS011;39387;50.998;22.340;2023-04-02T12:59:50;6.00;;;5.25;;
53503;SDS011;39387;50.998;22.340;2023-04-02T13:02:18;7.35;;;4.70;;
53503;SDS011;39387;50.998;22.340;2023-04-02T13:04:47;6.30;;;4.30;;
53503;SDS011;39387;50.998;22.340;2023-04-02T13:07:15;6.85;;;4.70;;
53503;SDS011;39387;50.998;22.340;2023-04-02T13:09:45;7.65;;;5.03;;
53503;SDS011;39387;50.998;22.340;2023-04-02T13:12:26;6.72;;;4.60;;
53503;SDS011;39387;50.998;22.340;2023-04-02T13:14:59;10.77;;;5.45;;
53503;SDS011;39387;50.998;22.340;2023-04-02T13:17:38;9.43;;;5.65;;
53503;SDS011;39387;50.998;22.340;2023-04-02T13:20:30;8.02;;;4.45;;
53503;SDS011;39387;50.998;22.340;2023-04-02T13:22:59;7.15;;;4.88;;
53503;SDS011;39387;50.998;22.340;2023-04-02T13:25:28;8.93;;;4.80;;
53503;SDS011;39387;50.998;22.340;2023-04-02T13:27:56;8.00;;;5.28;;
53503;SDS011;39387;50.998;22.340;2023-04-02T13:30:26;8.88;;;5.70;;
53503;SDS011;39387;50.998;22.340;2023-04-02T13:32:54;7.22;;;4.93;;
53503;SDS011;39387;50.998;22.340;2023-04-02T13:35:22;8.05;;;5.25;;
53503;SDS011;39387;50.998;22.340;2023-04-02T13:37:49;8.27;;;5.00;;
53503;SDS011;39387;50.998;22.340;2023-04-02T13:40:17;10.45;;;5.75;;
53503;SDS011;39387;50.998;22.340;2023-04-02T13:42:45;8.73;;;5.65;;
53503;SDS011;39387;50.998;22.340;2023-04-02T13:47:49;6.65;;;4.53;;
53503;SDS011;39387;50.998;22.340;2023-04-02T13:50:17;6.65;;;4.50;;
53503;SDS011;39387;50.998;22.340;2023-04-02T13:52:45;7.75;;;5.00;;
53503;SDS011;39387;50.998;22.340;2023-04-02T13:55:14;7.38;;;4.90;;
53503;SDS011;39387;50.998;22.340;2023-04-02T13:57:42;9.95;;;5.72;;
53503;SDS011;39387;50.998;22.340;2023-04-02T14:00:10;9.05;;;5.53;;
53503;SDS011;39387;50.998;22.340;2023-04-02T14:02:39;8.43;;;4.70;;
53503;SDS011;39387;50.998;22.340;2023-04-02T14:05:14;8.43;;;5.35;;
53503;SDS011;39387;50.998;22.340;2023-04-02T14:07:49;9.05;;;5.20;;
53503;SDS011;39387;50.998;22.340;2023-04-02T14:10:24;8.60;;;4.85;;
53503;SDS011;39387;50.998;22.340;2023-04-02T14:13:02;8.65;;;5.20;;
53503;SDS011;39387;50.998;22.340;2023-04-02T14:15:38;10.63;;;5.82;;
53503;SDS011;39387;50.998;22.340;2023-04-02T14:18:17;10.63;;;6.13;;
53503;SDS011;39387;50.998;22.340;2023-04-02T14:20:55;11.65;;;6.38;;
53503;SDS011;39387;50.998;22.340;2023-04-02T14:23:33;18.38;;;9.18;;
53503;SDS011;39387;50.998;22.340;2023-04-02T14:26:10;14.23;;;7.68;;
53503;SDS011;39387;50.998;22.340;2023-04-02T14:28:42;9.98;;;6.25;;
53503;SDS011;39387;50.998;22.340;2023-04-02T14:31:15;8.65;;;5.80;;
53503;SDS011;39387;50.998;22.340;2023-04-02T14:33:48;9.68;;;5.80;;
53503;SDS011;39387;50.998;22.340;2023-04-02T14:36:22;13.85;;;7.38;;
53503;SDS011;39387;50.998;22.340;2023-04-02T14:38:53;11.93;;;5.97;;
53503;SDS011;39387;50.998;22.340;2023-04-02T14:41:23;13.00;;;6.78;;
53503;SDS011;39387;50.998;22.340;2023-04-02T14:46:23;9.30;;;5.35;;
53503;SDS011;39387;50.998;22.340;2023-04-02T14:48:53;14.15;;;7.07;;
53503;SDS011;39387;50.998;22.340;2023-04-02T14:51:25;12.13;;;6.35;;
53503;SDS011;39387;50.998;22.340;2023-04-02T14:53:58;9.73;;;5.70;;
53503;SDS011;39387;50.998;22.340;2023-04-02T14:56:30;8.30;;;4.93;;
53503;SDS011;39387;50.998;22.340;2023-04-02T14:59:05;8.80;;;5.65;;
53503;SDS011;39387;50.998;22.340;2023-04-02T15:01:48;7.35;;;4.63;;
53503;SDS011;39387;50.998;22.340;2023-04-02T15:04:17;7.88;;;4.70;;
53503;SDS011;39387;50.998;22.340;2023-04-02T15:06:49;7.82;;;4.88;;
53503;SDS011;39387;50.998;22.340;2023-04-02T15:11:47;9.43;;;4.57;;
53503;SDS011;39387;50.998;22.340;2023-04-02T15:14:17;11.15;;;5.68;;
53503;SDS011;39387;50.998;22.340;2023-04-02T15:16:47;9.70;;;5.32;;
53503;SDS011;39387;50.998;22.340;2023-04-02T15:19:15;7.60;;;4.70;;
53503;SDS011;39387;50.998;22.340;2023-04-02T15:24:36;7.25;;;4.60;;
53503;SDS011;39387;50.998;22.340;2023-04-02T15:27:12;8.13;;;5.03;;
53503;SDS011;39387;50.998;22.340;2023-04-02T15:29:47;8.35;;;5.00;;
53503;SDS011;39387;50.998;22.340;2023-04-02T15:32:22;5.93;;;3.92;;
53503;SDS011;39387;50.998;22.340;2023-04-02T15:34:54;7.30;;;4.50;;
53503;SDS011;39387;50.998;22.340;2023-04-02T15:37:28;6.65;;;4.22;;
53503;SDS011;39387;50.998;22.340;2023-04-02T15:40:03;7.20;;;4.40;;
53503;SDS011;39387;50.998;22.340;2023-04-02T15:42:42;7.88;;;4.28;;
53503;SDS011;39387;50.998;22.340;2023-04-02T15:45:17;5.65;;;3.80;;
53503;SDS011;39387;50.998;22.340;2023-04-02T15:47:54;5.07;;;3.47;;
53503;SDS011;39387;50.998;22.340;2023-04-02T15:50:33;6.07;;;4.43;;
53503;SDS011;39387;50.998;22.340;2023-04-02T15:53:12;6.50;;;3.38;;
53503;SDS011;39387;50.998;22.340;2023-04-02T15:55:50;5.57;;;3.28;;